My Meet Scores
Jemma Sobanski, Rise Up Academy - MyMeetScores.com
Top100 | Top Teams | Upcoming Meets | Completed Meets | Latest | Add Scores | Help| Support | Bookmark and Share

Jemma Sobanski, Rise Up Academy
Personal Bests
LevelVault BarsBeamFloorAA
29.2509.550 9.4009.27537.150
39.7259.600 9.1759.35037.400
48.7009.275 9.3009.27536.350
59.5008.825 8.9259.00035.950
Meet Scores
Date Meet Team Session Level Division Vault Bars Beam Floor AA
2020-02-07 IGI Chicago Style Meet Rise Up Academy 211 5 A 8.250 9 8.650 9 8.925 6 8.850 7T 34.675 9
2020-01-31 Big Chill Rise Up Academy 4 5 8 & 9 9.500 2T 8.650 7 8.800 6 9.000 8 35.950 6
2020-01-10 St Jude Benefit Meet Rise Up Academy 2A 5 Jr 9.150 6T 8.825 5T 8.500 9 8.900 6T 35.375 7
2019-12-20 2019 Women's Hawaiian Pineapple Classic Rise Up Academy 2A 5 Ages 10U 8.925 4 8.750 2 8.500 5 8.475 8 34.650 7
2019-03-22 Illinois Gymnastics State Championships Palatine Gym Club 8 4 Ch C 8.700 14T 9.275 7 9.100 18 9.275 10 36.350 11
2019-03-08 Lucky Invite Palatine Gym Club A08 4 Jr A 8.650 11 8.875 14 9.000 13 8.700 16 35.225 15
2019-02-01 St. Valentines Classic Palatine Gym Club 4A 4 8 yrs. 8.350 6 8.500 3 8.900 3 8.850 4 34.600 1
2019-01-04 Leenda's Island Adventure Palatine Gym Club G04 4 8 and Unde 7.900 10 8.100 2 9.125 1 8.875 2 34.000 1
2018-12-14 Hawaiian Pineapple Classic Palatine Gym Club 1B 4 Ages8U 8.150 4 8.350 4 9.300 1 8.100 3 33.900 3
2018-11-30 Ultimate Wish Classic Palatine Gym Club 5 4 JR A 7.950 11 7.700 12T 8.725 8 8.500 9T 32.875 9
2018-11-03 Phyllis Matras Invite Palatine Gym Club All 4 All 8.650 28T 8.600 26T 8.375 34 8.600 36T 34.225 29
2018-05-03 Illinois USA Gymnastics Level 3 State Championships The Gymnastics Shop 7 3 Ch C 9.725 2 9.350 9T 8.950 13 9.350 12 37.375 7
2018-03-09 Lucky Invitational The Gymnastics Shop B03 3 Jr A 9.375 1 9.600 1 9.175 1 9.250 1 37.400 1
2018-02-23 Kinetic Classic The Gymnastics Shop 5 3 Younger 9.400 4T 9.375 26T 9.000 42T 9.175 38T 36.950 25
2018-01-12 Legacy Elite Winter Classic The Gymnastics Shop 2 3 ChildA 9.350 1T 8.875 6 9.050 2 9.200 3T 36.475 3
2017-12-14 2017 Women's Hawaiian Pineapple Classic The Gymnastics Shop 4A 3 Age7U 8.900 10 9.075 4 8.450 6 9.000 5 35.425 5
2017-12-01 Ultimate Wish Classic The Gymnastics Shop 4 3 JR1 8.700 13 8.600 11 9.150 4 8.875 8 35.325 8
2017-01-27 Circle Of Stars Gymnastics Invitational Lakeshore Academy of Mt. Prospect D27 2 Jr A 9.200 3T 9.550 2T 9.400 1 9.000 3T 37.150 1
2016-12-15 2016 Hawaiian Pineapple Sanction Lakeshore Academy of Mt. Prospect 5A 2 Ages 6U 8.200 11T 9.200 3 9.225 1 9.275 3 35.900 2
2016-11-11 2016 Illinois Judges Cup Lakeshore Academy of Mt. Prospect B6 2 6 and Over 9.250 2 8.600 3 9.400 1 9.000 1 36.250 1
Get your scores on
a t-shirt, pin, or hoodie

www.lazysuits.com